Archival Weather

Habib Bourguiba Intl

Habib Bourguiba Intl, Tunisia (DTMB)

Report from: Sunday, October 1, 2023 5:30 PM CET
Current time: Saturday, February 24, 2024 5:08 PM CET

Current weather – Weather history – Daily summaries
Weather forecast

Temperature26.0°C (78.8°F)
Dew point18.0°C (64.4°F)
Winds 10 kts (5.1 m/s, 11.5 mph) East-Southeast (110°)
Visibility6.2 mi. (10 km)
Clouds Few clouds 3,000 ft. (914 m)
Altimeter30.15 in.Hg (1021 mB)
Relative humidity61 %
Density altitude1,293 ft. (394 m)
Flight conditions Visual Meteorological Conditions
Raw dataDTMB 011630Z 11010KT 9999 FEW030 26/18 Q1021
An error has occurred. This application may no longer respond until reloaded. Reload 🗙